sensor_id;sensor_type;location;lat;lon;timestamp;pressure;altitude;pressure_sealevel;temperature;humidity
39773;BME280;25451;51.960;6.250;2023-08-08T00:02:13;101280.41;;;15.58;80.32
39773;BME280;25451;51.960;6.250;2023-08-08T00:04:38;101283.47;;;15.57;80.25
39773;BME280;25451;51.960;6.250;2023-08-08T00:07:03;101284.56;;;15.56;80.39
39773;BME280;25451;51.960;6.250;2023-08-08T00:09:29;101281.78;;;15.56;80.23
39773;BME280;25451;51.960;6.250;2023-08-08T00:11:54;101275.41;;;15.55;80.40
39773;BME280;25451;51.960;6.250;2023-08-08T00:14:19;101270.91;;;15.49;80.33
39773;BME280;25451;51.960;6.250;2023-08-08T00:16:45;101276.72;;;15.48;80.44
39773;BME280;25451;51.960;6.250;2023-08-08T00:19:10;101264.19;;;15.45;80.38
39773;BME280;25451;51.960;6.250;2023-08-08T00:21:35;101267.22;;;15.44;80.36
39773;BME280;25451;51.960;6.250;2023-08-08T00:24:01;101250.16;;;15.35;80.35
39773;BME280;25451;51.960;6.250;2023-08-08T00:26:26;101267.75;;;15.41;80.46
39773;BME280;25451;51.960;6.250;2023-08-08T00:28:51;101261.84;;;15.37;80.53
39773;BME280;25451;51.960;6.250;2023-08-08T00:31:18;101264.06;;;15.35;80.51
39773;BME280;25451;51.960;6.250;2023-08-08T00:33:45;101260.41;;;15.30;80.63
39773;BME280;25451;51.960;6.250;2023-08-08T00:36:10;101266.81;;;15.30;80.48
39773;BME280;25451;51.960;6.250;2023-08-08T00:38:35;101259.81;;;15.28;80.39
39773;BME280;25451;51.960;6.250;2023-08-08T00:41:00;101255.59;;;15.20;80.49
39773;BME280;25451;51.960;6.250;2023-08-08T00:43:26;101263.66;;;15.22;80.60
39773;BME280;25451;51.960;6.250;2023-08-08T00:45:51;101256.16;;;15.22;80.71
39773;BME280;25451;51.960;6.250;2023-08-08T00:48:17;101259.22;;;15.21;80.69
39773;BME280;25451;51.960;6.250;2023-08-08T00:50:44;101255.03;;;15.18;80.68
39773;BME280;25451;51.960;6.250;2023-08-08T00:53:10;101255.28;;;15.17;80.75
39773;BME280;25451;51.960;6.250;2023-08-08T00:55:36;101252.50;;;15.17;80.66
39773;BME280;25451;51.960;6.250;2023-08-08T00:58:02;101262.53;;;15.18;80.75
39773;BME280;25451;51.960;6.250;2023-08-08T01:00:27;101260.28;;;15.15;80.76
39773;BME280;25451;51.960;6.250;2023-08-08T01:02:53;101252.72;;;15.10;80.65
39773;BME280;25451;51.960;6.250;2023-08-08T01:05:18;101259.16;;;15.16;80.80
39773;BME280;25451;51.960;6.250;2023-08-08T01:08:01;101259.44;;;15.14;80.83
39773;BME280;25451;51.960;6.250;2023-08-08T01:10:34;101256.66;;;15.14;80.89
39773;BME280;25451;51.960;6.250;2023-08-08T01:13:22;101251.94;;;15.15;80.67
39773;BME280;25451;51.960;6.250;2023-08-08T01:15:49;101250.25;;;15.14;80.82
39773;BME280;25451;51.960;6.250;2023-08-08T01:18:15;101248.31;;;15.14;80.90
39773;BME280;25451;51.960;6.250;2023-08-08T01:20:43;101244.69;;;15.14;80.83
39773;BME280;25451;51.960;6.250;2023-08-08T01:23:24;101242.47;;;15.16;80.73
39773;BME280;25451;51.960;6.250;2023-08-08T01:25:51;101254.44;;;15.16;80.84
39773;BME280;25451;51.960;6.250;2023-08-08T01:28:20;101244.16;;;15.17;80.93
39773;BME280;25451;51.960;6.250;2023-08-08T01:30:46;101252.50;;;15.17;80.98
39773;BME280;25451;51.960;6.250;2023-08-08T01:33:11;101253.31;;;15.17;80.97
39773;BME280;25451;51.960;6.250;2023-08-08T01:35:38;101233.88;;;15.17;81.04
39773;BME280;25451;51.960;6.250;2023-08-08T01:38:28;101230.84;;;15.19;81.03
39773;BME280;25451;51.960;6.250;2023-08-08T01:40:56;101232.19;;;15.16;81.07
39773;BME280;25451;51.960;6.250;2023-08-08T01:43:23;101241.97;;;15.19;81.08
39773;BME280;25451;51.960;6.250;2023-08-08T01:45:50;101231.94;;;15.18;81.12
39773;BME280;25451;51.960;6.250;2023-08-08T01:48:15;101223.31;;;15.19;81.21
39773;BME280;25451;51.960;6.250;2023-08-08T01:50:41;101220.22;;;15.16;81.16
39773;BME280;25451;51.960;6.250;2023-08-08T01:53:06;101216.59;;;15.15;81.23
39773;BME280;25451;51.960;6.250;2023-08-08T01:55:32;101218.03;;;15.18;81.12
39773;BME280;25451;51.960;6.250;2023-08-08T01:57:57;101226.38;;;15.18;81.23
39773;BME280;25451;51.960;6.250;2023-08-08T02:00:23;101228.63;;;15.21;81.18
39773;BME280;25451;51.960;6.250;2023-08-08T02:02:48;101221.09;;;15.21;81.33
39773;BME280;25451;51.960;6.250;2023-08-08T02:05:13;101215.81;;;15.20;81.26
39773;BME280;25451;51.960;6.250;2023-08-08T02:07:39;101214.16;;;15.19;81.31
39773;BME280;25451;51.960;6.250;2023-08-08T02:10:04;101207.66;;;15.08;81.34
39773;BME280;25451;51.960;6.250;2023-08-08T02:12:30;101210.81;;;15.17;81.30
39773;BME280;25451;51.960;6.250;2023-08-08T02:14:59;101216.38;;;15.17;81.44
39773;BME280;25451;51.960;6.250;2023-08-08T02:17:24;101211.03;;;15.10;81.40
39773;BME280;25451;51.960;6.250;2023-08-08T02:19:51;101213.25;;;15.13;81.50
39773;BME280;25451;51.960;6.250;2023-08-08T02:22:16;101203.75;;;15.09;81.69
39773;BME280;25451;51.960;6.250;2023-08-08T02:24:42;101205.47;;;15.10;81.60
39773;BME280;25451;51.960;6.250;2023-08-08T02:27:07;101199.06;;;15.10;81.69
39773;BME280;25451;51.960;6.250;2023-08-08T02:29:32;101194.06;;;15.12;81.69
39773;BME280;25451;51.960;6.250;2023-08-08T02:31:58;101201.56;;;15.11;81.73
39773;BME280;25451;51.960;6.250;2023-08-08T02:34:23;101189.63;;;15.11;81.75
39773;BME280;25451;51.960;6.250;2023-08-08T02:36:49;101190.44;;;15.11;81.72
39773;BME280;25451;51.960;6.250;2023-08-08T02:39:14;101191.56;;;15.10;81.73
39773;BME280;25451;51.960;6.250;2023-08-08T02:41:39;101189.63;;;15.11;81.67
39773;BME280;25451;51.960;6.250;2023-08-08T02:44:06;101189.63;;;15.11;81.66
39773;BME280;25451;51.960;6.250;2023-08-08T02:46:32;101193.50;;;15.10;81.84
39773;BME280;25451;51.960;6.250;2023-08-08T02:48:57;101186.00;;;15.10;81.73
39773;BME280;25451;51.960;6.250;2023-08-08T02:51:22;101177.66;;;15.10;81.67
39773;BME280;25451;51.960;6.250;2023-08-08T02:53:48;101169.31;;;15.10;81.68
39773;BME280;25451;51.960;6.250;2023-08-08T02:56:13;101175.72;;;15.11;81.86
39773;BME280;25451;51.960;6.250;2023-08-08T02:58:38;101175.72;;;15.11;81.85
39773;BME280;25451;51.960;6.250;2023-08-08T03:01:04;101160.91;;;15.05;81.87
39773;BME280;25451;51.960;6.250;2023-08-08T03:03:29;101169.59;;;15.09;81.95
39773;BME280;25451;51.960;6.250;2023-08-08T03:05:54;101180.72;;;15.09;82.01
39773;BME280;25451;51.960;6.250;2023-08-08T03:08:20;101172.63;;;15.07;81.89
39773;BME280;25451;51.960;6.250;2023-08-08T03:10:45;101169.25;;;15.05;81.93
39773;BME280;25451;51.960;6.250;2023-08-08T03:13:10;101178.44;;;15.06;82.01
39773;BME280;25451;51.960;6.250;2023-08-08T03:15:36;101174.81;;;15.05;81.90
39773;BME280;25451;51.960;6.250;2023-08-08T03:18:01;101167.28;;;15.01;81.75
39773;BME280;25451;51.960;6.250;2023-08-08T03:20:27;101173.44;;;15.03;81.98
39773;BME280;25451;51.960;6.250;2023-08-08T03:22:52;101179.22;;;15.01;81.97
39773;BME280;25451;51.960;6.250;2023-08-08T03:25:17;101172.00;;;15.00;81.98
39773;BME280;25451;51.960;6.250;2023-08-08T03:27:43;101174.75;;;14.95;82.02
39773;BME280;25451;51.960;6.250;2023-08-08T03:30:09;101171.69;;;14.96;82.11
39773;BME280;25451;51.960;6.250;2023-08-08T03:32:34;101169.72;;;14.92;82.05
39773;BME280;25451;51.960;6.250;2023-08-08T03:34:59;101178.63;;;14.94;82.08
39773;BME280;25451;51.960;6.250;2023-08-08T03:37:25;101163.31;;;14.91;81.91
39773;BME280;25451;51.960;6.250;2023-08-08T03:39:50;101165.78;;;14.88;82.00
39773;BME280;25451;51.960;6.250;2023-08-08T03:42:15;101174.94;;;14.88;82.12
39773;BME280;25451;51.960;6.250;2023-08-08T03:44:41;101164.66;;;14.84;82.31
39773;BME280;25451;51.960;6.250;2023-08-08T03:47:06;101167.44;;;14.84;82.31
39773;BME280;25451;51.960;6.250;2023-08-08T03:49:32;101160.44;;;14.81;82.19
39773;BME280;25451;51.960;6.250;2023-08-08T03:51:57;101160.44;;;14.81;82.20
39773;BME280;25451;51.960;6.250;2023-08-08T03:54:23;101158.75;;;14.80;82.23
39773;BME280;25451;51.960;6.250;2023-08-08T03:56:48;101162.66;;;14.79;82.25
39773;BME280;25451;51.960;6.250;2023-08-08T03:59:13;101157.63;;;14.76;82.31
39773;BME280;25451;51.960;6.250;2023-08-08T04:01:39;101136.72;;;14.69;82.08
39773;BME280;25451;51.960;6.250;2023-08-08T04:04:04;101150.97;;;14.77;82.09
39773;BME280;25451;51.960;6.250;2023-08-08T04:06:30;101155.69;;;14.77;82.24
39773;BME280;25451;51.960;6.250;2023-08-08T04:08:55;101157.63;;;14.76;82.32
39773;BME280;25451;51.960;6.250;2023-08-08T04:11:21;101154.25;;;14.74;82.27
39773;BME280;25451;51.960;6.250;2023-08-08T04:13:46;101151.47;;;14.74;82.32
39773;BME280;25451;51.960;6.250;2023-08-08T04:16:11;101151.47;;;14.74;82.32
39773;BME280;25451;51.960;6.250;2023-08-08T04:18:37;101155.38;;;14.73;82.24
39773;BME280;25451;51.960;6.250;2023-08-08T04:21:02;101149.25;;;14.71;82.27
39773;BME280;25451;51.960;6.250;2023-08-08T04:23:27;101148.69;;;14.69;82.35
39773;BME280;25451;51.960;6.250;2023-08-08T04:25:53;101158.44;;;14.72;82.41
39773;BME280;25451;51.960;6.250;2023-08-08T04:28:19;101145.31;;;14.67;82.27
39773;BME280;25451;51.960;6.250;2023-08-08T04:30:44;101153.69;;;14.72;82.30
39773;BME280;25451;51.960;6.250;2023-08-08T04:33:09;101151.44;;;14.69;82.39
39773;BME280;25451;51.960;6.250;2023-08-08T04:35:35;101147.31;;;14.72;82.43
39773;BME280;25451;51.960;6.250;2023-08-08T04:38:00;101160.09;;;14.73;82.43
39773;BME280;25451;51.960;6.250;2023-08-08T04:40:25;101150.66;;;14.74;82.38
39773;BME280;25451;51.960;6.250;2023-08-08T04:42:51;101160.09;;;14.73;82.41
39773;BME280;25451;51.960;6.250;2023-08-08T04:45:16;101158.72;;;14.75;82.42
39773;BME280;25451;51.960;6.250;2023-08-08T04:47:42;101153.19;;;14.75;82.39
39773;BME280;25451;51.960;6.250;2023-08-08T04:50:07;101150.66;;;14.74;82.43
39773;BME280;25451;51.960;6.250;2023-08-08T04:52:33;101142.06;;;14.75;82.40
39773;BME280;25451;51.960;6.250;2023-08-08T04:54:58;101147.06;;;14.78;82.48
39773;BME280;25451;51.960;6.250;2023-08-08T04:57:23;101145.13;;;14.79;82.61
39773;BME280;25451;51.960;6.250;2023-08-08T04:59:49;101139.00;;;14.77;82.54
39773;BME280;25451;51.960;6.250;2023-08-08T05:02:14;101146.56;;;14.81;82.66
39773;BME280;25451;51.960;6.250;2023-08-08T05:04:39;101140.72;;;14.83;82.51
39773;BME280;25451;51.960;6.250;2023-08-08T05:07:05;101130.41;;;14.78;82.63
39773;BME280;25451;51.960;6.250;2023-08-08T05:09:31;101138.78;;;14.83;82.46
39773;BME280;25451;51.960;6.250;2023-08-08T05:11:56;101133.53;;;14.87;82.61
39773;BME280;25451;51.960;6.250;2023-08-08T05:14:22;101134.94;;;14.89;82.79
39773;BME280;25451;51.960;6.250;2023-08-08T05:16:47;101130.19;;;14.85;82.67
39773;BME280;25451;51.960;6.250;2023-08-08T05:19:12;101124.34;;;14.86;82.81
39773;BME280;25451;51.960;6.250;2023-08-08T05:21:38;101136.09;;;14.93;82.71
39773;BME280;25451;51.960;6.250;2023-08-08T05:24:03;101120.22;;;14.89;82.85
39773;BME280;25451;51.960;6.250;2023-08-08T05:26:29;101131.69;;;14.98;82.82
39773;BME280;25451;51.960;6.250;2023-08-08T05:28:54;101128.91;;;14.98;82.89
39773;BME280;25451;51.960;6.250;2023-08-08T05:31:20;101117.22;;;14.95;82.84
39773;BME280;25451;51.960;6.250;2023-08-08T05:33:45;101129.19;;;15.01;82.93
39773;BME280;25451;51.960;6.250;2023-08-08T05:36:10;101114.44;;;14.95;82.77
39773;BME280;25451;51.960;6.250;2023-08-08T05:38:36;101120.34;;;15.04;82.77
39773;BME280;25451;51.960;6.250;2023-08-08T05:41:01;101134.03;;;15.11;82.95
39773;BME280;25451;51.960;6.250;2023-08-08T05:43:27;101129.03;;;15.13;82.93
39773;BME280;25451;51.960;6.250;2023-08-08T05:45:53;101135.97;;;15.15;82.84
39773;BME280;25451;51.960;6.250;2023-08-08T05:48:18;101142.94;;;15.18;83.01
39773;BME280;25451;51.960;6.250;2023-08-08T05:50:43;101139.66;;;15.21;83.04
39773;BME280;25451;51.960;6.250;2023-08-08T05:53:09;101138.25;;;15.23;83.00
39773;BME280;25451;51.960;6.250;2023-08-08T05:55:34;101135.47;;;15.23;83.03
39773;BME280;25451;51.960;6.250;2023-08-08T05:57:59;101148.31;;;15.29;83.06
39773;BME280;25451;51.960;6.250;2023-08-08T06:00:25;101139.44;;;15.32;83.03
39773;BME280;25451;51.960;6.250;2023-08-08T06:02:50;101142.50;;;15.36;83.04
39773;BME280;25451;51.960;6.250;2023-08-08T06:05:21;101136.44;;;15.39;83.15
39773;BME280;25451;51.960;6.250;2023-08-08T06:07:47;101141.44;;;15.42;83.18
39773;BME280;25451;51.960;6.250;2023-08-08T06:10:12;101140.94;;;15.45;83.13
39773;BME280;25451;51.960;6.250;2023-08-08T06:12:37;101138.41;;;15.43;83.17
39773;BME280;25451;51.960;6.250;2023-08-08T06:15:03;101142.09;;;15.49;83.07
39773;BME280;25451;51.960;6.250;2023-08-08T06:17:31;101157.69;;;15.55;83.03
39773;BME280;25451;51.960;6.250;2023-08-08T06:19:57;101155.19;;;15.58;83.06
39773;BME280;25451;51.960;6.250;2023-08-08T06:22:22;101147.69;;;15.59;83.15
39773;BME280;25451;51.960;6.250;2023-08-08T06:24:48;101159.41;;;15.66;83.16
39773;BME280;25451;51.960;6.250;2023-08-08T06:27:13;101175.59;;;15.69;83.25
39773;BME280;25451;51.960;6.250;2023-08-08T06:29:39;101172.22;;;15.67;83.34
39773;BME280;25451;51.960;6.250;2023-08-08T06:32:04;101166.38;;;15.63;83.31
39773;BME280;25451;51.960;6.250;2023-08-08T06:34:29;101169.78;;;15.75;83.42
39773;BME280;25451;51.960;6.250;2023-08-08T06:36:55;101152.19;;;15.70;83.42
39773;BME280;25451;51.960;6.250;2023-08-08T06:39:20;101171.19;;;15.83;83.51
39773;BME280;25451;51.960;6.250;2023-08-08T06:41:47;101159.22;;;15.83;83.40
39773;BME280;25451;51.960;6.250;2023-08-08T06:44:12;101162.84;;;15.88;83.47
39773;BME280;25451;51.960;6.250;2023-08-08T06:46:37;101175.44;;;15.96;83.58
39773;BME280;25451;51.960;6.250;2023-08-08T06:49:03;101172.41;;;16.02;83.45
39773;BME280;25451;51.960;6.250;2023-08-08T06:51:29;101158.50;;;16.02;83.55
39773;BME280;25451;51.960;6.250;2023-08-08T06:53:55;101165.75;;;16.13;83.48
39773;BME280;25451;51.960;6.250;2023-08-08T06:56:21;101164.38;;;16.16;83.55
39773;BME280;25451;51.960;6.250;2023-08-08T06:58:46;101173.59;;;16.21;83.72
39773;BME280;25451;51.960;6.250;2023-08-08T07:01:12;101169.13;;;16.25;83.45
39773;BME280;25451;51.960;6.250;2023-08-08T07:03:38;101166.06;;;16.27;83.66
39773;BME280;25451;51.960;6.250;2023-08-08T07:06:04;101157.72;;;16.27;83.55
39773;BME280;25451;51.960;6.250;2023-08-08T07:08:29;101169.44;;;16.34;83.65
39773;BME280;25451;51.960;6.250;2023-08-08T07:10:56;101173.34;;;16.38;83.56
39773;BME280;25451;51.960;6.250;2023-08-08T07:13:22;101165.56;;;16.40;83.59
39773;BME280;25451;51.960;6.250;2023-08-08T07:15:47;101164.47;;;16.46;83.72
39773;BME280;25451;51.960;6.250;2023-08-08T07:18:12;101168.66;;;16.48;83.63
39773;BME280;25451;51.960;6.250;2023-08-08T07:20:37;101164.53;;;16.51;83.72
39773;BME280;25451;51.960;6.250;2023-08-08T07:23:04;101165.88;;;16.53;83.79
39773;BME280;25451;51.960;6.250;2023-08-08T07:25:30;101158.09;;;16.55;83.66
39773;BME280;25451;51.960;6.250;2023-08-08T07:27:55;101156.72;;;16.58;83.63
39773;BME280;25451;51.960;6.250;2023-08-08T07:30:20;101156.97;;;16.62;83.39
39773;BME280;25451;51.960;6.250;2023-08-08T07:32:46;101143.06;;;16.56;83.73
39773;BME280;25451;51.960;6.250;2023-08-08T07:35:11;101160.09;;;16.65;83.66
39773;BME280;25451;51.960;6.250;2023-08-08T07:37:37;101144.19;;;16.61;83.63
39773;BME280;25451;51.960;6.250;2023-08-08T07:40:03;101141.69;;;16.69;83.54
39773;BME280;25451;51.960;6.250;2023-08-08T07:42:29;101151.16;;;16.78;83.37
39773;BME280;25451;51.960;6.250;2023-08-08T07:44:54;101144.75;;;16.78;83.25
39773;BME280;25451;51.960;6.250;2023-08-08T07:47:20;101135.00;;;16.80;83.20
39773;BME280;25451;51.960;6.250;2023-08-08T07:49:45;101164.53;;;16.96;82.96
39773;BME280;25451;51.960;6.250;2023-08-08T07:52:11;101157.59;;;17.04;82.72
39773;BME280;25451;51.960;6.250;2023-08-08T07:54:36;101136.94;;;17.10;82.62
39773;BME280;25451;51.960;6.250;2023-08-08T07:57:01;101152.00;;;17.24;82.43
39773;BME280;25451;51.960;6.250;2023-08-08T07:59:27;101152.28;;;17.32;82.34
39773;BME280;25451;51.960;6.250;2023-08-08T08:01:52;101146.97;;;17.36;82.01
39773;BME280;25451;51.960;6.250;2023-08-08T08:04:18;101149.16;;;17.44;82.02
39773;BME280;25451;51.960;6.250;2023-08-08T09:03:59;101144.03;;;18.89;77.94
39773;BME280;25451;51.960;6.250;2023-08-08T09:06:25;101141.22;;;18.89;77.99
39773;BME280;25451;51.960;6.250;2023-08-08T09:08:52;101145.06;;;18.98;77.71
39773;BME280;25451;51.960;6.250;2023-08-08T09:11:17;101148.59;;;19.09;77.49
39773;BME280;25451;51.960;6.250;2023-08-08T09:13:42;101133.50;;;19.10;77.32
39773;BME280;25451;51.960;6.250;2023-08-08T09:16:08;101143.44;;;19.26;77.30
39773;BME280;25451;51.960;6.250;2023-08-08T09:18:34;101149.19;;;19.39;76.69
39773;BME280;25451;51.960;6.250;2023-08-08T09:21:03;101145.22;;;19.45;76.41
39773;BME280;25451;51.960;6.250;2023-08-08T09:23:29;101156.00;;;19.57;76.33
39773;BME280;25451;51.960;6.250;2023-08-08T09:25:54;101155.66;;;19.63;76.12
39773;BME280;25451;51.960;6.250;2023-08-08T09:28:19;101169.00;;;19.71;75.78
39773;BME280;25451;51.960;6.250;2023-08-08T09:30:45;101159.47;;;19.72;75.52
39773;BME280;25451;51.960;6.250;2023-08-08T09:33:11;101168.13;;;19.76;75.26
39773;BME280;25451;51.960;6.250;2023-08-08T09:35:39;101175.03;;;19.83;75.06
39773;BME280;25451;51.960;6.250;2023-08-08T09:38:05;101176.63;;;19.90;74.70
39773;BME280;25451;51.960;6.250;2023-08-08T09:40:31;101172.72;;;19.91;74.58
39773;BME280;25451;51.960;6.250;2023-08-08T09:42:57;101175.75;;;19.94;74.24
39773;BME280;25451;51.960;6.250;2023-08-08T09:45:23;101168.19;;;19.95;74.18
39773;BME280;25451;51.960;6.250;2023-08-08T09:47:50;101176.59;;;19.95;74.20
39773;BME280;25451;51.960;6.250;2023-08-08T09:50:17;101172.09;;;19.94;73.87
39773;BME280;25451;51.960;6.250;2023-08-08T09:52:43;101179.69;;;19.93;73.51
39773;BME280;25451;51.960;6.250;2023-08-08T09:55:10;101172.72;;;19.91;73.39
39773;BME280;25451;51.960;6.250;2023-08-08T09:57:39;101171.66;;;19.87;73.23
39773;BME280;25451;51.960;6.250;2023-08-08T10:00:05;101176.09;;;19.88;73.14
39773;BME280;25451;51.960;6.250;2023-08-08T10:02:35;101173.28;;;19.88;72.82
39773;BME280;25451;51.960;6.250;2023-08-08T10:05:03;101166.56;;;19.89;72.45
39773;BME280;25451;51.960;6.250;2023-08-08T10:07:29;101173.28;;;19.88;72.23
39773;BME280;25451;51.960;6.250;2023-08-08T10:09:55;101159.81;;;19.90;72.04
39773;BME280;25451;51.960;6.250;2023-08-08T10:12:22;101167.97;;;19.91;72.09
39773;BME280;25451;51.960;6.250;2023-08-08T10:14:48;101158.72;;;19.91;71.98
39773;BME280;25451;51.960;6.250;2023-08-08T10:17:15;101163.16;;;19.92;71.74
39773;BME280;25451;51.960;6.250;2023-08-08T10:19:50;101163.88;;;20.02;71.54
39773;BME280;25451;51.960;6.250;2023-08-08T10:22:20;101171.41;;;20.07;71.38
39773;BME280;25451;51.960;6.250;2023-08-08T10:24:47;101169.66;;;20.11;71.27
39773;BME280;25451;51.960;6.250;2023-08-08T10:27:13;101166.00;;;20.10;71.14
39773;BME280;25451;51.960;6.250;2023-08-08T10:29:40;101174.59;;;20.19;71.01
39773;BME280;25451;51.960;6.250;2023-08-08T10:32:07;101175.13;;;20.26;70.94
39773;BME280;25451;51.960;6.250;2023-08-08T10:34:43;101176.19;;;20.30;70.55
39773;BME280;25451;51.960;6.250;2023-08-08T10:37:13;101168.00;;;20.33;70.48
39773;BME280;25451;51.960;6.250;2023-08-08T10:39:58;101177.91;;;20.44;70.26
39773;BME280;25451;51.960;6.250;2023-08-08T10:42:25;101176.44;;;20.52;70.07
39773;BME280;25451;51.960;6.250;2023-08-08T10:45:01;101167.41;;;20.55;69.60
39773;BME280;25451;51.960;6.250;2023-08-08T10:47:36;101167.88;;;20.62;69.17
39773;BME280;25451;51.960;6.250;2023-08-08T10:52:33;101168.94;;;20.66;69.40
39773;BME280;25451;51.960;6.250;2023-08-08T10:55:02;101180.69;;;20.68;69.47
39773;BME280;25451;51.960;6.250;2023-08-08T10:57:28;101163.31;;;20.66;69.30
39773;BME280;25451;51.960;6.250;2023-08-08T10:59:53;101175.66;;;20.65;69.54
39773;BME280;25451;51.960;6.250;2023-08-08T11:02:20;101176.28;;;20.62;69.47
39773;BME280;25451;51.960;6.250;2023-08-08T11:04:46;101162.78;;;20.64;69.24
39773;BME280;25451;51.960;6.250;2023-08-08T11:07:14;101170.03;;;20.65;68.98
39773;BME280;25451;51.960;6.250;2023-08-08T11:09:39;101170.88;;;20.65;68.96
39773;BME280;25451;51.960;6.250;2023-08-08T11:12:05;101172.25;;;20.68;68.60
39773;BME280;25451;51.960;6.250;2023-08-08T11:14:30;101151.03;;;20.62;68.40
39773;BME280;25451;51.960;6.250;2023-08-08T11:16:55;101132.09;;;20.54;68.30
39773;BME280;25451;51.960;6.250;2023-08-08T11:19:21;101172.47;;;20.72;68.07
39773;BME280;25451;51.960;6.250;2023-08-08T11:21:48;101166.50;;;20.78;68.02
39773;BME280;25451;51.960;6.250;2023-08-08T11:24:14;101169.50;;;20.82;68.12
39773;BME280;25451;51.960;6.250;2023-08-08T11:26:41;101163.00;;;20.86;68.23
39773;BME280;25451;51.960;6.250;2023-08-08T11:29:07;101169.03;;;20.93;68.10
39773;BME280;25451;51.960;6.250;2023-08-08T11:31:34;101161.16;;;20.95;68.03
39773;BME280;25451;51.960;6.250;2023-08-08T11:34:00;101165.53;;;21.01;68.35
39773;BME280;25451;51.960;6.250;2023-08-08T11:36:35;101163.28;;;21.03;68.07
39773;BME280;25451;51.960;6.250;2023-08-08T11:39:02;101160.19;;;21.05;67.62
39773;BME280;25451;51.960;6.250;2023-08-08T11:41:34;101155.72;;;21.04;68.00
39773;BME280;25451;51.960;6.250;2023-08-08T11:44:01;101145.63;;;21.03;67.92
39773;BME280;25451;51.960;6.250;2023-08-08T11:46:27;101145.84;;;21.06;67.81
39773;BME280;25451;51.960;6.250;2023-08-08T11:48:52;101146.06;;;21.10;67.89
39773;BME280;25451;51.960;6.250;2023-08-08T11:51:18;101157.28;;;21.10;68.09
39773;BME280;25451;51.960;6.250;2023-08-08T11:53:53;101164.22;;;21.17;67.89
39773;BME280;25451;51.960;6.250;2023-08-08T11:56:19;101157.97;;;21.20;67.75
39773;BME280;25451;51.960;6.250;2023-08-08T11:58:46;101158.81;;;21.21;67.48
39773;BME280;25451;51.960;6.250;2023-08-08T12:01:12;101162.13;;;21.23;67.30
39773;BME280;25451;51.960;6.250;2023-08-08T12:03:39;101160.75;;;21.20;67.18
39773;BME280;25451;51.960;6.250;2023-08-08T12:06:15;101156.31;;;21.19;66.87
39773;BME280;25451;51.960;6.250;2023-08-08T12:08:42;101153.50;;;21.19;66.90
39773;BME280;25451;51.960;6.250;2023-08-08T12:11:08;101147.88;;;21.19;66.67
39773;BME280;25451;51.960;6.250;2023-08-08T12:13:37;101146.53;;;21.17;66.79
39773;BME280;25451;51.960;6.250;2023-08-08T12:16:03;101147.56;;;21.21;66.63
39773;BME280;25451;51.960;6.250;2023-08-08T12:18:29;101135.06;;;21.13;66.64
39773;BME280;25451;51.960;6.250;2023-08-08T12:20:55;101142.03;;;21.16;66.42
39773;BME280;25451;51.960;6.250;2023-08-08T12:23:20;101132.78;;;21.15;66.42
39773;BME280;25451;51.960;6.250;2023-08-08T12:25:46;101143.41;;;21.18;66.24
39773;BME280;25451;51.960;6.250;2023-08-08T12:28:11;101142.56;;;21.18;65.92
39773;BME280;25451;51.960;6.250;2023-08-08T12:30:36;101145.88;;;21.20;65.79
39773;BME280;25451;51.960;6.250;2023-08-08T12:33:02;101154.09;;;21.16;65.83
39773;BME280;25451;51.960;6.250;2023-08-08T12:35:27;101138.41;;;21.15;65.73
39773;BME280;25451;51.960;6.250;2023-08-08T12:37:53;101141.75;;;21.17;65.70
39773;BME280;25451;51.960;6.250;2023-08-08T12:40:18;101140.91;;;21.17;65.50
39773;BME280;25451;51.960;6.250;2023-08-08T12:42:44;101150.69;;;21.19;65.44
39773;BME280;25451;51.960;6.250;2023-08-08T12:45:09;101141.75;;;21.17;65.37
39773;BME280;25451;51.960;6.250;2023-08-08T12:47:36;101147.88;;;21.19;65.24
39773;BME280;25451;51.960;6.250;2023-08-08T12:50:04;101141.13;;;21.20;65.24
39773;BME280;25451;51.960;6.250;2023-08-08T12:52:29;101136.94;;;21.18;65.12
39773;BME280;25451;51.960;6.250;2023-08-08T12:54:55;101139.66;;;21.23;65.14
39773;BME280;25451;51.960;6.250;2023-08-08T12:57:20;101144.44;;;21.22;64.98
39773;BME280;25451;51.960;6.250;2023-08-08T12:59:45;101130.94;;;21.24;64.96
39773;BME280;25451;51.960;6.250;2023-08-08T13:02:11;101150.72;;;21.33;65.02
39773;BME280;25451;51.960;6.250;2023-08-08T13:04:36;101142.81;;;21.35;64.66
39773;BME280;25451;51.960;6.250;2023-08-08T13:07:01;101150.41;;;21.34;64.74
39773;BME280;25451;51.960;6.250;2023-08-08T13:09:27;101148.31;;;21.40;64.41
39773;BME280;25451;51.960;6.250;2023-08-08T13:11:52;101152.81;;;21.41;64.24
39773;BME280;25451;51.960;6.250;2023-08-08T13:14:17;101144.72;;;21.39;64.10
39773;BME280;25451;51.960;6.250;2023-08-08T13:16:43;101150.84;;;21.41;64.10
39773;BME280;25451;51.960;6.250;2023-08-08T13:19:08;101148.84;;;21.42;63.83
39773;BME280;25451;51.960;6.250;2023-08-08T13:21:33;101139.63;;;21.41;63.81
39773;BME280;25451;51.960;6.250;2023-08-08T13:23:59;101142.44;;;21.41;63.54
39773;BME280;25451;51.960;6.250;2023-08-08T13:26:24;101172.38;;;21.46;63.61
39773;BME280;25451;51.960;6.250;2023-08-08T13:28:50;101147.94;;;21.46;63.43
39773;BME280;25451;51.960;6.250;2023-08-08T13:31:15;101148.44;;;21.48;63.25
39773;BME280;25451;51.960;6.250;2023-08-08T13:33:41;101149.09;;;21.45;63.34
39773;BME280;25451;51.960;6.250;2023-08-08T13:36:07;101137.22;;;21.48;63.44
39773;BME280;25451;51.960;6.250;2023-08-08T13:38:32;101157.41;;;21.51;63.05
39773;BME280;25451;51.960;6.250;2023-08-08T13:40:58;101150.84;;;21.41;63.35
39773;BME280;25451;51.960;6.250;2023-08-08T13:43:25;101155.84;;;21.44;63.14
39773;BME280;25451;51.960;6.250;2023-08-08T13:45:50;101159.56;;;21.40;63.19